Callicoon, New York
Current Conditions -  °F | °C
As of 8:35 PM on Wednesday 26 Nov 2014 (Local Time) from KMSV Reporting Station
Overcast Overcast  
Wind Chill: 21°   Ceiling: 1500
Heat Index: 30°   Visibility: 9mi
Dew Point: 27°   Wind: 12mph
Humidity: 86%   Direction: 320°NW
Pressure: 29.86"   Gusts: NA
Location:  41.77°N, 75.06°W
Report Text: KMSV 270135Z AUTO 32010KT 9SM BKN015 BKN023 OVC029 M01/M03 A2986 RMK AO1
Loading
Personal Weather Stations






























Interactive Weather Map New forecast layout! Learn more

10-Day Weather Forecast

Advertisements
Track Severe Weather on mobile